Point Reyes Station, CA

4:40 PM PDT on August 27, 2016 (GMT -0700)
Inverness, CA--First Valley | | Change Station

Elev 10 ft 38.10 °N, 122.85 °W | Updated 4 seconds ago

Clear
Clear
65.1 °F
Feels Like 65.1 °F
N
0.0
Wind Variable Wind from NNE
Gusts 0.0 mph

Today
High -- | Low -- °F
--% Chance of Precip.
Yesterday
High -- | Low -- °F
Precip. -- in
Pressure 30.00 in
Visibility 10.0 miles
Clouds Clear
Dew Point 58 °F
Humidity 77%
Rainfall 0.00 in
Snow Depth Not available.
6:37 AM 7:47 PM
Waning Crescent, 20% visible
METAR KO69 272335Z AUTO 28009G16KT 10SM CLR 22/M39 A3000 RMK AO1
Pressure 30.00 in
Visibility 10.0 miles
Clouds Clear
Dew Point 58 °F
Humidity 77%
Rainfall 0.00 in
Snow Depth Not available.
6:37 AM 7:47 PM
Waning Crescent, 20% visible
METAR KO69 272335Z AUTO 28009G16KT 10SM CLR 22/M39 A3000 RMK AO1

10-Day Weather Forecast

Almanac

Astronomy

Aug. 27, 2016 Rise Set
Actual Time
Civil Twilight
Nautical Twilight
Astronomical Twilight
Moon
Length of Visible Light
Length of Day
Tomorrow will be .
, % of the Moon is Illuminated

Today's Extremes

State Highs State Lows

Community

WunderPhotos

Upload Photos

1,935,468 photos uploaded!

WunderBlog® & News

Nearby

Air Quality

  Air Quality AQ Index Pollutant
Not available.

Snow Depth

Station Depth Elevation

Earthquake Activity

City Distance Mag. Time & Date
Minimum magnitude displayed is 2.5.

Coastal Water Temperatures

Place Temperature

Stations

Nearby Weather Stations

Station Location Temp. Windchill Dew Point Humidity Wind Precip. Elev Updated Type
                   

Watches & Warnings

There are currently no watches in effect.